Holy Cross, Alaska
Current Conditions -  °F | °C
As of 10:56 PM on Saturday 25 Oct 2014 (Local Time) from PAHC Reporting Station
Overcast Overcast  
Wind Chill: 24°   Ceiling: 1000
Heat Index: 31°   Visibility: 10mi
Dew Point: 30°   Wind: 8mph
Humidity: 96%   Direction: 270°W
Pressure: 29.76"   Gusts: NA
Location:  62.2°N, 159.77°W
Report Text: PAHC 260656Z AUTO 27007KT 10SM BKN010 OVC024 M01/M01 A2976 RMK AO2 TSNO T10051011 CIG 008V015 SNE54 P0000 SLP083 $
Loading
Personal Weather Stations






























Interactive Weather Map
Tropical Storm Tracking
New forecast layout! Learn more

10-Day Weather Forecast

Advertisements
Track Severe Weather on mobile